Time;durP1;ratioP1;P1;durP2;ratioP2;P2;SDS_P1;SDS_P2;PMS_P1;PMS_P2;Temp;Humidity;BMP_temperature;BMP_pressure;BME280_temperature;BME280_humidity;BME280_pressure;Samples;Min_cycle;Max_cycle;Signal;HPM_P1;HPM_P2
2021/12/03 00:01:00;;;;;;;16.90;7.70;;;2.50;91.60;;;;;;4965602;28;20554;-77
2021/12/03 00:03:25;;;;;;;11.63;7.10;;;2.50;91.60;;;;;;4979951;28;20030;-79
2021/12/03 00:05:55;;;;;;;11.07;6.75;;;2.50;91.50;;;;;;4979868;28;20133;-79
2021/12/03 00:08:20;;;;;;;9.95;5.90;;;2.50;91.60;;;;;;4956593;28;20049;-79
2021/12/03 00:10:53;;;;;;;9.88;6.43;;;2.50;91.60;;;;;;4964517;28;20286;-78
2021/12/03 00:13:20;;;;;;;11.18;6.60;;;2.50;91.60;;;;;;4975432;28;20467;-79
2021/12/03 00:15:45;;;;;;;10.25;6.20;;;2.50;91.60;;;;;;4958685;28;20020;-78
2021/12/03 00:18:11;;;;;;;10.02;5.78;;;2.50;91.60;;;;;;4978389;28;20404;-78
2021/12/03 00:20:37;;;;;;;11.23;6.25;;;2.40;91.60;;;;;;4960768;28;20045;-79
2021/12/03 00:23:03;;;;;;;10.40;5.70;;;2.40;91.60;;;;;;4969146;28;20141;-78
2021/12/03 00:25:29;;;;;;;11.98;6.53;;;2.40;91.60;;;;;;4977098;28;20420;-79
2021/12/03 00:27:54;;;;;;;10.90;6.60;;;2.40;91.60;;;;;;4958087;28;20030;-79
2021/12/03 00:30:20;;;;;;;14.23;7.10;;;2.40;91.60;;;;;;4956453;28;20029;-79
2021/12/03 00:32:46;;;;;;;12.68;6.22;;;2.40;91.60;;;;;;4951146;28;20062;-78
2021/12/03 00:35:12;;;;;;;9.85;5.78;;;2.40;91.60;;;;;;4970677;28;20137;-79
2021/12/03 00:37:38;;;;;;;10.88;6.05;;;2.40;91.70;;;;;;4944995;28;20512;-78
2021/12/03 00:40:11;;;;;;;11.88;6.35;;;2.40;91.70;;;;;;4976781;28;20034;-78
2021/12/03 00:42:37;;;;;;;11.95;7.45;;;2.40;91.70;;;;;;4942616;28;20041;-78
2021/12/03 00:45:04;;;;;;;12.45;6.95;;;2.40;91.70;;;;;;4988117;28;20062;-79
2021/12/03 00:47:30;;;;;;;12.00;6.65;;;2.40;91.70;;;;;;4950355;28;20360;-78
2021/12/03 00:49:55;;;;;;;9.20;5.80;;;2.40;91.70;;;;;;4973139;28;20554;-78
2021/12/03 00:52:21;;;;;;;15.10;6.60;;;2.40;91.70;;;;;;4961215;28;20031;-79
2021/12/03 00:54:47;;;;;;;11.65;6.82;;;2.40;91.70;;;;;;4958867;28;20483;-78
2021/12/03 00:57:12;;;;;;;11.02;6.40;;;2.40;91.70;;;;;;4964591;28;20508;-79
2021/12/03 00:59:38;;;;;;;11.55;6.57;;;2.40;91.70;;;;;;4930482;28;20078;-78
2021/12/03 01:02:04;;;;;;;12.13;7.32;;;2.50;91.70;;;;;;4943561;28;20026;-79
2021/12/03 01:04:29;;;;;;;9.95;5.93;;;2.50;91.70;;;;;;4979551;28;20025;-79
2021/12/03 01:06:55;;;;;;;11.13;6.55;;;2.50;91.70;;;;;;4964467;28;20038;-78
2021/12/03 01:09:23;;;;;;;10.23;5.15;;;2.50;91.70;;;;;;4937498;28;20492;-77
2021/12/03 01:11:49;;;;;;;11.00;5.88;;;2.50;91.70;;;;;;4975457;28;20667;-79
2021/12/03 01:14:15;;;;;;;10.88;6.05;;;2.50;91.70;;;;;;4987324;28;20049;-79
2021/12/03 01:16:40;;;;;;;10.13;6.05;;;2.40;91.70;;;;;;4949441;28;20035;-79
2021/12/03 01:19:06;;;;;;;12.00;6.53;;;2.40;91.70;;;;;;4941202;28;20676;-78
2021/12/03 01:21:32;;;;;;;10.63;6.40;;;2.40;91.70;;;;;;4966168;28;20034;-79
2021/12/03 01:23:57;;;;;;;11.15;5.90;;;2.40;91.70;;;;;;4981352;28;20042;-78
2021/12/03 01:26:23;;;;;;;10.05;6.13;;;2.40;91.70;;;;;;4967521;28;20038;-79
2021/12/03 01:28:49;;;;;;;16.35;6.10;;;2.40;91.70;;;;;;4972330;28;20045;-79
2021/12/03 01:31:15;;;;;;;9.65;5.68;;;2.40;91.70;;;;;;4954886;28;20042;-78
2021/12/03 01:33:40;;;;;;;11.20;5.75;;;2.40;91.70;;;;;;4945530;28;20531;-77
2021/12/03 01:36:06;;;;;;;10.65;5.53;;;2.30;91.60;;;;;;4983607;28;20031;-78
2021/12/03 01:38:32;;;;;;;8.77;5.75;;;2.30;91.60;;;;;;4955894;28;20439;-78
2021/12/03 01:40:57;;;;;;;10.98;6.18;;;2.30;91.70;;;;;;4957582;28;20686;-78
2021/12/03 01:43:24;;;;;;;11.02;5.93;;;2.30;91.60;;;;;;4927029;28;20066;-78
2021/12/03 01:45:55;;;;;;;10.20;5.85;;;2.20;91.60;;;;;;4975178;28;20167;-78
2021/12/03 01:48:21;;;;;;;10.73;6.25;;;2.20;91.60;;;;;;4960314;28;20038;-79
2021/12/03 01:50:46;;;;;;;8.85;5.32;;;2.20;91.60;;;;;;4974325;28;20042;-78
2021/12/03 01:53:13;;;;;;;10.10;5.55;;;2.20;91.60;;;;;;5014648;28;20034;-79
2021/12/03 01:55:39;;;;;;;11.63;5.95;;;2.10;91.60;;;;;;4965137;28;20057;-78
2021/12/03 01:58:05;;;;;;;9.20;5.45;;;2.10;91.60;;;;;;5006093;28;20632;-78
2021/12/03 02:00:36;;;;;;;10.45;5.40;;;2.10;91.60;;;;;;4964702;28;20034;-78
2021/12/03 02:03:01;;;;;;;8.77;5.53;;;2.00;91.60;;;;;;4978222;28;20062;-79
2021/12/03 02:05:27;;;;;;;9.73;5.13;;;2.00;91.50;;;;;;4975021;28;20125;-78
2021/12/03 02:07:52;;;;;;;8.27;5.07;;;1.90;91.50;;;;;;5001320;28;20045;-78
2021/12/03 02:10:19;;;;;;;7.72;4.72;;;1.90;91.50;;;;;;4953490;28;20034;-78
2021/12/03 02:12:45;;;;;;;9.60;5.75;;;1.90;91.50;;;;;;4960804;28;20106;-78
2021/12/03 02:15:11;;;;;;;9.52;5.40;;;1.90;91.50;;;;;;4999050;28;20515;-78
2021/12/03 02:17:36;;;;;;;7.93;5.20;;;1.80;91.50;;;;;;4984986;28;20174;-78
2021/12/03 02:20:03;;;;;;;8.45;5.07;;;1.80;91.50;;;;;;4961655;28;20030;-78
2021/12/03 02:22:28;;;;;;;7.90;5.05;;;1.70;91.50;;;;;;4982383;28;20034;-78
2021/12/03 02:24:54;;;;;;;7.65;4.75;;;1.70;91.50;;;;;;4980635;28;20796;-78
2021/12/03 02:27:19;;;;;;;7.10;4.18;;;1.70;91.50;;;;;;4991444;28;20103;-78
2021/12/03 02:29:45;;;;;;;9.35;5.10;;;1.60;91.50;;;;;;4996072;28;20034;-78
2021/12/03 02:32:10;;;;;;;8.15;4.85;;;1.60;91.50;;;;;;4982112;28;20038;-78
2021/12/03 02:34:36;;;;;;;8.02;4.82;;;1.60;91.50;;;;;;4964527;28;20065;-78
2021/12/03 02:37:03;;;;;;;7.45;4.75;;;1.60;91.50;;;;;;4994637;28;20069;-78
2021/12/03 02:39:29;;;;;;;7.13;4.35;;;1.50;91.50;;;;;;4982889;28;20045;-78
2021/12/03 02:41:54;;;;;;;6.53;3.90;;;1.50;91.50;;;;;;5007451;28;20807;-78
2021/12/03 02:44:20;;;;;;;10.70;4.68;;;1.50;91.50;;;;;;4999801;28;20034;-78
2021/12/03 02:46:46;;;;;;;6.38;4.22;;;1.50;91.50;;;;;;4999377;28;20038;-78
2021/12/03 02:49:14;;;;;;;7.05;4.40;;;1.40;91.50;;;;;;4999738;28;20053;-78
2021/12/03 02:51:41;;;;;;;5.93;4.30;;;1.40;91.50;;;;;;4975824;28;20038;-78
2021/12/03 02:54:06;;;;;;;6.60;4.32;;;1.40;91.50;;;;;;5003388;28;20091;-79
2021/12/03 02:56:32;;;;;;;6.18;4.15;;;1.40;91.50;;;;;;4987820;28;20566;-79
2021/12/03 02:58:57;;;;;;;6.32;4.00;;;1.30;91.50;;;;;;4997848;28;20109;-78
2021/12/03 03:01:23;;;;;;;7.68;4.32;;;1.30;91.50;;;;;;4927822;28;20053;-78
2021/12/03 03:03:48;;;;;;;5.70;3.92;;;1.30;91.60;;;;;;4985737;28;20026;-78
2021/12/03 03:06:14;;;;;;;6.45;4.18;;;1.30;91.50;;;;;;5004160;28;20496;-78
2021/12/03 03:08:41;;;;;;;7.35;4.75;;;1.30;91.50;;;;;;4963772;28;20022;-79
2021/12/03 03:11:07;;;;;;;5.65;4.20;;;1.20;91.50;;;;;;4984702;28;20049;-78
2021/12/03 03:13:33;;;;;;;5.72;3.58;;;1.20;91.50;;;;;;5000442;28;20022;-79
2021/12/03 03:15:59;;;;;;;5.57;3.47;;;1.20;91.60;;;;;;5008427;28;20105;-78
2021/12/03 03:18:27;;;;;;;6.72;4.20;;;1.20;91.50;;;;;;4976681;28;20026;-78
2021/12/03 03:20:53;;;;;;;5.30;3.70;;;1.10;91.50;;;;;;4988788;28;20045;-78
2021/12/03 03:23:18;;;;;;;7.35;3.97;;;1.10;91.50;;;;;;4977999;28;20033;-78
2021/12/03 03:25:44;;;;;;;5.93;3.90;;;1.10;91.50;;;;;;4990288;28;20025;-78
2021/12/03 03:28:10;;;;;;;6.43;4.20;;;1.00;91.50;;;;;;5015189;28;20053;-77
2021/12/03 03:30:37;;;;;;;7.32;3.95;;;1.00;91.50;;;;;;5013595;28;20030;-78
2021/12/03 03:33:03;;;;;;;5.93;3.50;;;1.00;91.50;;;;;;5001663;28;20519;-78
2021/12/03 03:35:29;;;;;;;8.18;3.90;;;0.90;91.50;;;;;;4990395;28;20173;-78
2021/12/03 03:37:54;;;;;;;4.63;3.35;;;0.90;91.50;;;;;;5001279;28;20029;-79
2021/12/03 03:40:20;;;;;;;5.60;3.78;;;0.90;91.50;;;;;;4970015;28;20061;-79
2021/12/03 03:42:45;;;;;;;5.90;3.70;;;0.80;91.60;;;;;;4987664;28;20044;-77
2021/12/03 03:45:14;;;;;;;4.80;3.50;;;0.80;91.50;;;;;;4980062;28;20042;-78
2021/12/03 03:47:40;;;;;;;5.65;3.50;;;0.80;91.60;;;;;;4972863;28;20034;-78
2021/12/03 03:50:06;;;;;;;6.93;3.45;;;0.80;91.60;;;;;;4980526;28;20105;-78
2021/12/03 03:52:32;;;;;;;6.05;3.63;;;0.80;91.60;;;;;;4969098;28;20057;-78
2021/12/03 03:54:57;;;;;;;6.60;3.28;;;0.70;91.60;;;;;;4977118;28;20112;-78
2021/12/03 03:57:23;;;;;;;5.10;3.58;;;0.70;91.60;;;;;;4963764;28;20647;-77
2021/12/03 03:59:48;;;;;;;7.40;3.45;;;0.70;91.60;;;;;;4987208;28;20499;-77
2021/12/03 04:02:14;;;;;;;4.13;2.90;;;0.70;91.60;;;;;;4985444;28;20442;-78
2021/12/03 04:04:39;;;;;;;5.28;3.10;;;0.70;92.00;;;;;;4963905;28;20051;-78
2021/12/03 04:07:05;;;;;;;4.72;3.25;;;0.70;91.70;;;;;;4957675;28;20523;-79
2021/12/03 04:09:30;;;;;;;6.70;3.42;;;0.70;91.70;;;;;;4988689;28;20069;-78
2021/12/03 04:11:57;;;;;;;6.05;3.20;;;0.70;91.80;;;;;;4995448;28;20403;-77
2021/12/03 04:14:22;;;;;;;4.63;3.03;;;0.80;91.80;;;;;;5007214;28;20083;-78
2021/12/03 04:16:48;;;;;;;5.45;3.42;;;0.80;91.80;;;;;;4986497;28;20039;-79
2021/12/03 04:19:14;;;;;;;5.97;3.45;;;0.90;91.90;;;;;;4969917;28;20041;-78
2021/12/03 04:21:39;;;;;;;7.60;3.58;;;0.90;91.80;;;;;;4977606;28;20484;-79
2021/12/03 04:24:05;;;;;;;9.15;4.13;;;0.90;91.90;;;;;;4962737;28;20448;-77
2021/12/03 04:26:31;;;;;;;5.88;3.75;;;0.90;91.90;;;;;;4975416;28;20037;-77
2021/12/03 04:28:56;;;;;;;7.40;4.93;;;0.90;91.80;;;;;;4977718;28;20038;-78
2021/12/03 04:31:22;;;;;;;9.63;5.20;;;1.00;91.90;;;;;;4972196;28;20021;-79
2021/12/03 04:33:48;;;;;;;8.27;5.00;;;1.00;91.80;;;;;;4973100;28;20499;-78
2021/12/03 04:36:13;;;;;;;9.07;4.72;;;1.00;91.90;;;;;;4997512;28;20083;-78
2021/12/03 04:38:39;;;;;;;10.98;5.68;;;1.00;91.80;;;;;;5002518;28;20042;-77
2021/12/03 04:41:04;;;;;;;7.28;4.30;;;1.10;91.80;;;;;;4984293;28;20053;-79
2021/12/03 04:43:30;;;;;;;8.98;5.35;;;1.10;91.80;;;;;;4942627;28;20109;-77
2021/12/03 04:45:56;;;;;;;5.60;3.67;;;1.10;91.80;;;;;;4943460;28;20070;-78
2021/12/03 04:48:21;;;;;;;7.35;4.07;;;1.10;91.80;;;;;;4985115;28;20125;-77
2021/12/03 04:50:47;;;;;;;8.00;3.88;;;1.10;91.80;;;;;;4968712;28;20499;-78
2021/12/03 04:53:13;;;;;;;6.57;3.42;;;1.10;91.80;;;;;;4971150;28;20259;-78
2021/12/03 04:55:38;;;;;;;8.52;4.38;;;1.10;91.70;;;;;;4979138;28;20045;-78
2021/12/03 04:58:04;;;;;;;6.72;3.58;;;1.10;91.90;;;;;;4959934;28;20061;-78
2021/12/03 05:00:32;;;;;;;4.93;3.60;;;1.10;91.70;;;;;;4979636;28;20038;-77
2021/12/03 05:02:59;;;;;;;7.25;3.90;;;1.10;91.70;;;;;;5000871;28;20041;-78
2021/12/03 05:05:26;;;;;;;5.25;3.70;;;1.10;91.70;;;;;;4955560;28;20491;-78
2021/12/03 05:07:58;;;;;;;4.57;3.42;;;1.10;91.70;;;;;;4985415;28;20053;-78
2021/12/03 05:10:28;;;;;;;5.43;3.60;;;1.10;91.70;;;;;;4963630;28;20050;-78
2021/12/03 05:12:58;;;;;;;5.32;3.50;;;1.10;91.70;;;;;;4992593;28;20080;-78
2021/12/03 05:15:24;;;;;;;4.93;3.05;;;1.10;91.70;;;;;;4983504;28;20045;-78
2021/12/03 05:17:50;;;;;;;7.78;4.10;;;1.10;91.70;;;;;;4959406;28;20044;-77
2021/12/03 05:20:15;;;;;;;6.68;3.95;;;1.10;91.70;;;;;;4973340;28;20033;-78
2021/12/03 05:22:41;;;;;;;5.75;3.60;;;1.10;92.00;;;;;;4941533;28;20026;-79
2021/12/03 05:25:07;;;;;;;5.55;3.63;;;1.10;91.70;;;;;;4970380;28;20034;-78
2021/12/03 05:27:33;;;;;;;5.88;3.78;;;1.10;91.70;;;;;;4971773;28;20034;-78
2021/12/03 05:29:58;;;;;;;7.13;4.03;;;1.10;91.70;;;;;;4964434;28;20064;-76
2021/12/03 05:32:24;;;;;;;5.97;3.92;;;1.10;91.70;;;;;;4945206;28;20137;-77
2021/12/03 05:34:49;;;;;;;7.60;4.30;;;1.20;91.70;;;;;;5008378;28;20042;-79
2021/12/03 05:37:15;;;;;;;6.97;4.05;;;1.20;91.70;;;;;;5002270;28;20038;-78
2021/12/03 05:39:41;;;;;;;9.55;5.03;;;1.20;91.70;;;;;;4968626;28;20038;-79
2021/12/03 05:42:06;;;;;;;6.72;4.43;;;1.20;91.70;;;;;;4983350;28;20034;-78
2021/12/03 05:44:32;;;;;;;6.43;4.22;;;1.20;91.70;;;;;;4954337;28;20039;-77
2021/12/03 05:46:58;;;;;;;5.80;4.22;;;1.20;91.70;;;;;;4961307;28;20066;-77
2021/12/03 05:49:23;;;;;;;7.05;4.95;;;1.20;91.70;;;;;;4982072;28;20034;-78
2021/12/03 05:51:49;;;;;;;7.53;4.25;;;1.20;91.70;;;;;;4970419;28;20038;-77
2021/12/03 05:54:14;;;;;;;6.32;4.20;;;1.20;91.70;;;;;;4964977;28;20523;-78
2021/12/03 05:56:40;;;;;;;7.40;5.03;;;1.20;91.60;;;;;;4993427;28;20318;-77
2021/12/03 05:59:05;;;;;;;7.70;5.28;;;1.20;91.60;;;;;;4995323;28;20045;-78
2021/12/03 06:01:31;;;;;;;6.45;4.85;;;1.20;91.60;;;;;;4976672;28;20046;-77
2021/12/03 06:03:56;;;;;;;7.45;5.05;;;1.20;91.60;;;;;;4976643;28;20034;-77
2021/12/03 06:06:22;;;;;;;9.73;5.40;;;1.20;91.60;;;;;;4962152;28;20037;-78
2021/12/03 06:08:48;;;;;;;7.20;5.30;;;1.20;91.60;;;;;;4973583;28;20046;-79
2021/12/03 06:11:13;;;;;;;9.50;5.28;;;1.10;91.60;;;;;;4955650;28;20515;-78
2021/12/03 06:13:39;;;;;;;8.93;5.57;;;1.20;91.60;;;;;;4974776;28;20057;-78
2021/12/03 06:16:11;;;;;;;8.45;5.38;;;1.20;91.60;;;;;;4976081;28;20034;-78
2021/12/03 06:18:37;;;;;;;9.02;5.22;;;1.20;91.60;;;;;;4966708;28;20034;-78
2021/12/03 06:21:04;;;;;;;10.68;5.30;;;1.20;91.60;;;;;;4977750;28;20030;-79
2021/12/03 06:23:30;;;;;;;7.68;5.22;;;1.20;91.60;;;;;;4967339;28;20045;-80
2021/12/03 06:25:57;;;;;;;7.85;4.68;;;1.20;91.60;;;;;;4967862;28;20027;-79
2021/12/03 06:28:24;;;;;;;6.75;4.93;;;1.20;91.50;;;;;;4979175;28;20041;-79
2021/12/03 06:30:49;;;;;;;9.48;4.65;;;1.20;91.50;;;;;;4983918;28;20150;-80
2021/12/03 06:33:15;;;;;;;8.10;5.05;;;1.20;91.50;;;;;;4980211;28;20152;-80
2021/12/03 06:35:40;;;;;;;7.75;4.57;;;1.20;91.50;;;;;;4987567;28;20126;-79
2021/12/03 06:38:06;;;;;;;7.30;4.78;;;1.20;91.50;;;;;;4964277;28;20503;-80
2021/12/03 06:40:32;;;;;;;6.72;4.82;;;1.20;91.50;;;;;;4965821;28;20035;-80
2021/12/03 06:42:57;;;;;;;9.63;5.13;;;1.20;91.50;;;;;;4962425;28;20038;-80
2021/12/03 06:45:23;;;;;;;9.15;4.97;;;1.20;91.50;;;;;;4973127;28;20038;-80
2021/12/03 06:47:49;;;;;;;6.55;4.65;;;1.10;91.40;;;;;;4994789;28;20048;-80
2021/12/03 06:50:18;;;;;;;8.05;4.95;;;1.10;91.40;;;;;;4972122;28;20061;-80
2021/12/03 06:52:47;;;;;;;7.47;4.85;;;1.10;91.40;;;;;;4996781;28;20037;-80
2021/12/03 06:55:14;;;;;;;9.32;5.20;;;1.00;91.40;;;;;;4997638;28;20104;-80
2021/12/03 06:57:44;;;;;;;8.80;5.47;;;1.00;91.40;;;;;;5000010;28;20042;-80
2021/12/03 07:00:11;;;;;;;7.65;5.13;;;1.00;91.50;;;;;;4973988;28;20038;-80
2021/12/03 07:02:37;;;;;;;6.85;4.82;;;1.00;91.50;;;;;;4987176;28;20035;-80
2021/12/03 07:05:04;;;;;;;8.90;5.15;;;1.00;91.50;;;;;;4989409;28;20064;-80
2021/12/03 07:07:30;;;;;;;7.50;4.88;;;1.00;91.50;;;;;;4957209;28;20043;-80
2021/12/03 07:09:56;;;;;;;6.03;4.60;;;1.00;91.50;;;;;;5007021;28;20314;-80
2021/12/03 07:12:21;;;;;;;8.25;5.20;;;1.00;91.50;;;;;;4976967;28;20129;-79
2021/12/03 07:14:47;;;;;;;10.82;5.80;;;1.00;91.50;;;;;;4990821;28;20046;-80
2021/12/03 07:17:12;;;;;;;15.30;6.88;;;1.00;91.50;;;;;;4990157;28;20042;-79
2021/12/03 07:19:38;;;;;;;10.20;5.53;;;1.00;91.50;;;;;;4961767;28;20034;-79
2021/12/03 07:22:04;;;;;;;10.13;6.32;;;1.00;91.50;;;;;;4974601;28;20365;-79
2021/12/03 07:24:29;;;;;;;11.02;6.30;;;1.00;91.50;;;;;;4990749;28;20120;-79
2021/12/03 07:26:55;;;;;;;11.27;6.75;;;1.00;91.50;;;;;;4987650;28;20408;-80
2021/12/03 07:29:20;;;;;;;9.70;6.00;;;1.00;91.50;;;;;;4995569;28;20468;-79
2021/12/03 07:31:46;;;;;;;11.65;7.53;;;1.00;91.50;;;;;;5002898;28;20333;-80
2021/12/03 07:34:12;;;;;;;11.27;6.68;;;1.00;91.50;;;;;;4983821;28;20033;-79
2021/12/03 07:36:38;;;;;;;12.10;6.85;;;1.00;91.50;;;;;;4991957;28;20034;-79
2021/12/03 07:39:04;;;;;;;10.15;6.03;;;0.90;91.50;;;;;;4967784;28;20112;-79
2021/12/03 07:41:29;;;;;;;10.40;6.78;;;0.90;91.50;;;;;;4994521;28;20052;-79
2021/12/03 07:43:55;;;;;;;12.35;6.80;;;0.90;91.50;;;;;;4969085;28;20077;-79
2021/12/03 07:46:20;;;;;;;12.25;6.93;;;0.90;91.50;;;;;;4991211;28;20033;-79
2021/12/03 07:48:47;;;;;;;11.18;6.80;;;0.90;91.50;;;;;;4979448;28;20472;-80
2021/12/03 07:51:16;;;;;;;18.17;9.93;;;0.90;91.50;;;;;;4989115;28;20041;-80
2021/12/03 07:53:41;;;;;;;14.63;8.77;;;0.90;91.50;;;;;;5005160;28;20037;-80
2021/12/03 07:56:08;;;;;;;16.50;10.15;;;0.80;91.50;;;;;;4987720;28;20489;-80
2021/12/03 07:58:34;;;;;;;17.17;10.07;;;0.80;91.50;;;;;;5009538;28;20392;-80
2021/12/03 08:00:59;;;;;;;16.67;10.27;;;0.80;91.50;;;;;;5010401;28;20515;-80
2021/12/03 08:03:25;;;;;;;14.60;9.65;;;0.80;91.50;;;;;;4985669;28;20025;-79
2021/12/03 08:05:50;;;;;;;15.23;9.38;;;0.80;91.50;;;;;;4988132;28;20037;-80
2021/12/03 08:08:23;;;;;;;13.60;8.60;;;0.80;91.50;;;;;;4994972;28;20038;-80
2021/12/03 08:10:49;;;;;;;16.13;9.70;;;0.80;91.60;;;;;;4989636;28;20041;-79
2021/12/03 08:13:15;;;;;;;18.15;9.27;;;0.90;91.60;;;;;;5001626;28;20030;-81
2021/12/03 08:15:41;;;;;;;15.35;9.05;;;0.90;91.60;;;;;;4959299;28;20419;-80
2021/12/03 08:18:06;;;;;;;16.45;9.30;;;0.90;91.60;;;;;;4993562;28;20083;-80
2021/12/03 08:20:32;;;;;;;14.73;8.88;;;0.90;91.70;;;;;;4989026;28;20264;-80
2021/12/03 08:22:58;;;;;;;14.57;8.68;;;1.00;91.70;;;;;;4998574;28;20125;-81
2021/12/03 08:25:23;;;;;;;15.38;8.73;;;1.00;91.70;;;;;;4984123;28;20458;-81
2021/12/03 08:27:49;;;;;;;20.33;11.65;;;1.10;91.70;;;;;;4979814;28;20457;-80
2021/12/03 08:30:14;;;;;;;15.50;8.93;;;1.10;91.70;;;;;;4988153;28;20491;-80
2021/12/03 08:32:42;;;;;;;19.83;10.82;;;1.20;91.80;;;;;;5006022;28;20052;-80
2021/12/03 08:35:08;;;;;;;17.65;10.43;;;1.30;91.80;;;;;;4986174;28;20056;-79
2021/12/03 08:37:33;;;;;;;19.98;9.18;;;1.30;91.80;;;;;;4987848;28;20042;-80
2021/12/03 08:39:59;;;;;;;14.55;8.55;;;1.40;91.90;;;;;;5006773;28;20052;-80
2021/12/03 08:42:24;;;;;;;12.98;7.65;;;1.50;91.90;;;;;;5006896;28;20038;-81
2021/12/03 08:44:50;;;;;;;11.35;6.82;;;1.60;92.00;;;;;;4979262;28;20507;-80
2021/12/03 08:47:16;;;;;;;12.35;6.75;;;1.70;92.00;;;;;;4993247;28;20045;-79
2021/12/03 08:49:49;;;;;;;14.63;7.30;;;1.70;91.90;;;;;;4978990;28;20042;-80
2021/12/03 08:52:47;;;;;;;13.07;7.32;;;1.80;91.90;;;;;;5023581;28;20048;-80
2021/12/03 08:55:00;;;;;;;10.27;6.28;;;1.90;91.90;;;;;;5021604;28;20215;-80
2021/12/03 08:57:33;;;;;;;12.43;7.78;;;2.00;91.80;;;;;;4962193;28;20270;-81
2021/12/03 09:00:19;;;;;;;9.95;6.45;;;2.10;91.80;;;;;;4990719;28;20131;-80
2021/12/03 09:02:45;;;;;;;9.93;6.07;;;2.20;91.80;;;;;;5005429;28;20546;-80
2021/12/03 09:05:11;;;;;;;9.82;5.93;;;2.30;91.70;;;;;;4980095;28;20048;-80
2021/12/03 09:07:36;;;;;;;6.63;4.47;;;2.40;91.80;;;;;;4991527;28;20029;-80
2021/12/03 09:10:04;;;;;;;8.55;5.30;;;2.50;91.70;;;;;;4982514;28;20255;-80
2021/12/03 09:12:30;;;;;;;9.45;5.38;;;2.50;91.60;;;;;;4972583;28;20542;-80
2021/12/03 09:14:59;;;;;;;7.10;4.57;;;2.60;91.60;;;;;;4987996;28;20053;-80
2021/12/03 09:20:23;;;;;;;6.35;4.45;;;2.80;91.60;;;;;;4990370;28;20036;-79
2021/12/03 09:22:51;;;;;;;10.07;5.60;;;3.00;91.60;;;;;;4993935;28;20037;-79
2021/12/03 09:25:22;;;;;;;9.02;5.13;;;3.10;91.60;;;;;;4987131;28;20064;-79
2021/12/03 09:27:47;;;;;;;10.10;5.20;;;3.20;91.60;;;;;;4995862;28;21688;-80
2021/12/03 09:30:15;;;;;;;9.05;5.35;;;3.30;91.50;;;;;;4968257;28;20041;-79
2021/12/03 09:32:43;;;;;;;8.98;4.88;;;3.40;91.40;;;;;;4976348;28;20269;-79
2021/12/03 09:35:11;;;;;;;8.55;5.25;;;3.50;91.40;;;;;;4991166;28;20033;-80
2021/12/03 09:37:37;;;;;;;9.25;5.25;;;3.60;91.40;;;;;;4991539;28;20042;-80
2021/12/03 09:40:07;;;;;;;11.43;5.07;;;3.70;91.30;;;;;;5006966;28;20088;-80
2021/12/03 09:42:39;;;;;;;7.40;5.35;;;3.80;91.20;;;;;;4968412;28;20523;-79
2021/12/03 09:45:06;;;;;;;8.20;5.18;;;3.90;91.10;;;;;;4991105;28;20030;-78
2021/12/03 09:47:32;;;;;;;11.05;6.13;;;4.10;91.10;;;;;;4964889;28;20525;-80
2021/12/03 09:49:58;;;;;;;8.88;5.50;;;4.20;91.10;;;;;;4948949;28;20121;-80
2021/12/03 09:52:45;;;;;;;8.93;6.00;;;4.20;90.90;;;;;;4979974;28;20395;-79
2021/12/03 09:55:15;;;;;;;7.93;5.90;;;4.20;90.60;;;;;;4941306;28;20137;-80
2021/12/03 10:00:17;;;;;;;14.45;7.20;;;4.10;90.50;;;;;;4997916;28;20107;-79
2021/12/03 10:17:39;;;;;;;9.43;6.30;;;4.10;90.40;;;;;;4984981;28;20042;-79
2021/12/03 10:20:20;;;;;;;10.93;6.38;;;4.10;90.30;;;;;;4959350;28;20542;-80
2021/12/03 10:28:27;;;;;;;11.15;6.30;;;4.00;90.30;;;;;;4984789;28;19913;-80
2021/12/03 10:46:48;;;;;;;11.73;6.47;;;4.10;90.30;;;;;;5013110;28;20121;-81
2021/12/03 10:52:30;;;;;;;10.75;5.85;;;4.10;90.20;;;;;;5005682;28;20030;-80
2021/12/03 11:05:43;;;;;;;10.57;6.93;;;4.20;90.10;;;;;;4991650;28;20044;-80
2021/12/03 12:01:03;;;;;;;4.60;2.58;;;4.10;88.80;;;;;;4986885;28;20394;-78
2021/12/03 12:15:04;;;;;;;4.65;2.63;;;4.10;88.80;;;;;;4908995;29;20062;-80
2021/12/03 12:36:02;;;;;;;;;;;4.00;88.20;;;;;;4978527;28;20064;-80
2021/12/03 12:59:59;;;;;;;4.25;2.67;;;4.00;87.70;;;;;;4970133;28;20030;-80
2021/12/03 14:13:12;;;;;;;6.85;3.95;;;3.70;88.00;;;;;;4999240;28;20034;-80
2021/12/03 14:16:35;;;;;;;60.10;17.63;;;3.70;87.80;;;;;;5000158;28;20045;-81
2021/12/03 14:43:08;;;;;;;6.57;3.38;;;3.60;87.90;;;;;;4995409;28;20044;-78
2021/12/03 14:53:37;;;;;;;9.05;3.60;;;3.60;88.10;;;;;;4969326;28;20469;-78
2021/12/03 14:56:05;;;;;;;8.18;4.50;;;3.60;88.00;;;;;;4970602;28;20286;-79
2021/12/03 15:01:16;;;;;;;8.25;2.83;;;3.60;88.00;;;;;;4983387;28;20048;-79
2021/12/03 15:06:27;;;;;;;6.18;3.40;;;3.50;87.90;;;;;;4983129;28;20077;-80
2021/12/03 15:09:18;;;;;;;5.20;3.28;;;3.50;87.90;;;;;;5001349;28;20038;-79
2021/12/03 15:19:38;;;;;;;7.65;3.85;;;3.40;88.00;;;;;;4967628;28;20554;-79
2021/12/03 15:30:24;;;;;;;7.47;3.58;;;3.30;88.00;;;;;;4951922;28;20042;-80
2021/12/03 15:33:00;;;;;;;10.02;4.68;;;3.30;88.10;;;;;;4953705;28;20031;-79
2021/12/03 15:35:36;;;;;;;8.40;4.70;;;3.30;88.90;;;;;;4928499;28;20169;-80
2021/12/03 15:54:50;;;;;;;46.20;14.93;;;3.20;88.30;;;;;;4978297;28;20090;-79
2021/12/03 16:08:09;;;;;;;9.98;6.25;;;3.10;88.30;;;;;;4986493;28;20116;-80
2021/12/03 16:27:00;;;;;;;14.23;6.43;;;3.00;88.20;;;;;;4954433;28;20052;-80
2021/12/03 16:51:13;;;;;;;6.82;4.65;;;2.90;88.30;;;;;;4953763;28;20038;-80
2021/12/03 16:53:39;;;;;;;8.18;4.90;;;2.90;88.30;;;;;;4962583;28;20489;-80
2021/12/03 16:56:26;;;;;;;12.88;5.57;;;2.90;88.30;;;;;;4939830;28;20049;-80
2021/12/03 16:58:50;;;;;;;9.05;5.20;;;2.80;88.30;;;;;;4952645;28;20039;-80
2021/12/03 17:01:53;;;;;;;9.10;5.38;;;2.80;88.30;;;;;;4978128;28;20076;-80
2021/12/03 17:10:02;;;;;;;6.88;4.88;;;2.80;88.40;;;;;;4945488;28;20085;-79
2021/12/03 17:49:53;;;;;;;9.48;4.65;;;2.60;88.50;;;;;;4983183;28;20038;-79
2021/12/03 17:52:32;;;;;;;6.90;3.72;;;2.60;88.50;;;;;;4960968;28;20568;-79
2021/12/03 17:55:23;;;;;;;7.97;4.22;;;2.60;88.50;;;;;;4966459;28;20050;-79
2021/12/03 17:58:20;;;;;;;5.13;3.70;;;2.60;88.50;;;;;;4972405;28;20081;-79
2021/12/03 18:00:56;;;;;;;7.68;4.00;;;2.60;88.50;;;;;;4968888;28;20042;-79
2021/12/03 18:03:29;;;;;;;6.40;3.65;;;2.60;88.50;;;;;;4979372;28;20054;-78
2021/12/03 18:08:51;;;;;;;10.77;4.00;;;2.60;88.50;;;;;;4981710;28;20049;-79
2021/12/03 18:49:19;;;;;;;5.63;3.30;;;2.60;88.60;;;;;;4967883;28;20140;-78
2021/12/03 18:57:40;;;;;;;6.38;3.60;;;2.50;88.60;;;;;;4952093;28;20419;-77
2021/12/03 19:00:05;;;;;;;17.67;8.07;;;2.60;88.60;;;;;;4972040;28;20499;-79
2021/12/03 19:02:32;;;;;;;15.43;5.90;;;2.50;88.50;;;;;;4965482;28;20072;-78
2021/12/03 19:05:15;;;;;;;144.20;55.20;;;2.50;88.50;;;;;;4974287;28;20045;-77
2021/12/03 19:07:51;;;;;;;30.58;13.57;;;2.50;88.50;;;;;;4964460;28;20041;-78
2021/12/03 19:10:21;;;;;;;12.82;6.32;;;2.50;88.50;;;;;;4963857;28;20140;-79
2021/12/03 19:12:55;;;;;;;23.23;12.20;;;2.50;88.50;;;;;;4996900;28;20030;-78
2021/12/03 19:15:21;;;;;;;20.20;9.23;;;2.50;88.60;;;;;;4953260;28;20049;-78
2021/12/03 19:17:48;;;;;;;11.30;5.78;;;2.50;88.60;;;;;;4976043;28;20042;-77
2021/12/03 19:20:17;;;;;;;13.82;5.97;;;2.50;88.70;;;;;;4959986;28;20077;-80
2021/12/03 19:22:42;;;;;;;5.82;3.30;;;2.50;88.60;;;;;;4970290;28;22137;-80
2021/12/03 19:25:08;;;;;;;6.88;3.92;;;2.50;88.60;;;;;;4954146;28;20030;-79
2021/12/03 19:27:34;;;;;;;5.80;3.17;;;2.50;88.60;;;;;;4982710;28;20445;-79
2021/12/03 19:30:00;;;;;;;11.63;2.92;;;2.50;88.70;;;;;;4975268;28;20026;-79
2021/12/03 19:32:27;;;;;;;6.68;4.00;;;2.50;88.60;;;;;;5001014;28;20026;-79
2021/12/03 19:34:53;;;;;;;6.40;2.90;;;2.50;88.60;;;;;;4987935;28;20089;-79
2021/12/03 19:37:19;;;;;;;8.48;5.57;;;2.50;89.40;;;;;;4983789;28;20035;-78
2021/12/03 19:39:45;;;;;;;7.28;4.20;;;2.50;88.70;;;;;;4981501;28;20152;-79
2021/12/03 19:42:14;;;;;;;6.72;3.40;;;2.50;88.70;;;;;;4979862;28;20052;-78
2021/12/03 19:45:02;;;;;;;8.52;4.40;;;2.50;88.60;;;;;;4973843;28;20044;-78
2021/12/03 19:47:34;;;;;;;6.35;3.00;;;2.50;88.60;;;;;;4960109;28;20493;-78
2021/12/03 19:50:20;;;;;;;8.38;4.28;;;2.50;88.60;;;;;;4981874;28;20080;-76
2021/12/03 19:53:33;;;;;;;4.07;3.08;;;2.50;88.60;;;;;;4954136;28;20034;-79
2021/12/03 19:55:31;;;;;;;6.68;3.88;;;2.50;88.70;;;;;;4968885;28;20046;-79
2021/12/03 19:57:57;;;;;;;6.65;3.50;;;2.50;88.70;;;;;;4975320;28;20048;-80
2021/12/03 20:00:24;;;;;;;5.43;3.25;;;2.50;88.70;;;;;;4966806;28;20133;-81
2021/12/03 20:02:50;;;;;;;6.53;3.38;;;2.50;88.80;;;;;;4958499;28;20037;-78
2021/12/03 20:05:15;;;;;;;6.47;4.03;;;2.50;88.80;;;;;;4991762;28;20049;-77
2021/12/03 20:07:41;;;;;;;9.35;3.67;;;2.50;88.80;;;;;;4986235;28;20033;-78
2021/12/03 20:10:11;;;;;;;8.05;4.10;;;2.50;88.90;;;;;;4971644;28;20034;-78
2021/12/03 20:12:37;;;;;;;6.50;3.70;;;2.50;89.00;;;;;;5000606;28;20046;-79
2021/12/03 20:15:07;;;;;;;7.15;3.70;;;2.50;88.90;;;;;;4958040;28;20038;-78